K0V4

Brookneal Airport

Brookneal, Virginia, USA
METAR K0V4 180055Z AUTO 28005KT CLR 15/05 A3017 RMK AO1 T01530051
Observed Flight Rules
Oct-18 @ 00:55 UTC (26 minutes ago)
Wind Clouds
280° at 5 knots
  • Clear skies
Temperatures Readings
Current 15°C / 59°F
Dewpoint 5°C / 41°F
Humidity 51%
Altimeter 30.17" Hg
Pressure 1022 hPa
Elevation 182
METAR K0V4 180055Z AUTO 28005KT CLR 15/05 A3017 RMK AO1 T01530051
Observed Flight Rules
Oct-18 @ 00:55 UTC
(26 minutes ago)
Wind
280° at 5 knots
Clouds
  • Clear skies
Temperature Dewpoint
15°C / 59°F 5°C / 41°F
Humidity Altimeter Pressure
51% 30.17" Hg 1022 hPa